Main page
METAR-TAF:

METAR-TAF

Airports :

Havre City–County Airport

Havre, Montana, United States

latitude: 48-32-34N, longitude: 109-45-48W, elevation: 2588 ft

Current weather observation

The report was made 44 minutes ago, at 06:53 UTC
Wind 3 mph from the East
Temperature 70°F
Humidity 64%
Pressure 30.04 in. Hg
Visibility: 10 miles
Clear sky

METAR: KHVR 300653Z AUTO 10003KT 10SM CLR 21/14 A3004 RMK AO2 SLP156 T02060139 403500189 $

Time: 01:37 (07:37 UTC)

Forecast

The report was made 2 hours and 6 minutes ago, at 05:31 UTC
Forecast valid from 30 at 06 UTC to 31 at 06 UTC
Wind 6 mph from variable directions
Visibility: 6 miles
Few clouds at a height of 9000 ft
haze
From 30 at 2200 UTC
Wind 10 mph from the Northeast
Visibility: 6 miles
Scattered clouds at a height of 9000 ft
Scattered clouds at a height of 15000 ft
haze

TAF: KHVR 300531Z 3006/3106 VRB05KT P6SM HZ FEW090 FM302200 04009KT P6SM HZ SCT090 SCT150

Weather observations and forecasts of more than 4000 airports (METAR and TAF reports).

The available stations are represented by yellow and red dots on the map.

Hover mouse over dot to see the name of the station.

Then click to see weather observations and forecasts.

To change the map : click on the green buttons with a black cross to zoom in, on the green button with a dash to zoom out, or on the green arrows for adjacent maps.


METAR-TAF: